sensor_id;sensor_type;location;lat;lon;timestamp;pressure;altitude;pressure_sealevel;temperature;humidity
42591;BME280;28218;53.342;-6.216;2023-08-24T00:00:30;101341.88;;;17.35;100.00
42591;BME280;28218;53.342;-6.216;2023-08-24T00:03:00;101332.06;;;17.35;100.00
42591;BME280;28218;53.342;-6.216;2023-08-24T00:05:33;101318.72;;;17.35;100.00
42591;BME280;28218;53.342;-6.216;2023-08-24T00:08:01;101322.41;;;17.34;100.00
42591;BME280;28218;53.342;-6.216;2023-08-24T00:10:29;101321.59;;;17.34;100.00
42591;BME280;28218;53.342;-6.216;2023-08-24T00:12:58;101323.44;;;17.33;100.00
42591;BME280;28218;53.342;-6.216;2023-08-24T00:15:26;101326.94;;;17.34;100.00
42591;BME280;28218;53.342;-6.216;2023-08-24T00:17:54;101324.25;;;17.34;100.00
42591;BME280;28218;53.342;-6.216;2023-08-24T00:20:24;101330.63;;;17.33;100.00
42591;BME280;28218;53.342;-6.216;2023-08-24T00:22:54;101334.31;;;17.32;100.00
42591;BME280;28218;53.342;-6.216;2023-08-24T00:25:22;101330.81;;;17.31;100.00
42591;BME280;28218;53.342;-6.216;2023-08-24T00:27:51;101330.41;;;17.28;100.00
42591;BME280;28218;53.342;-6.216;2023-08-24T00:30:20;101326.50;;;17.30;100.00
42591;BME280;28218;53.342;-6.216;2023-08-24T00:32:48;101323.44;;;17.27;100.00
42591;BME280;28218;53.342;-6.216;2023-08-24T00:35:17;101319.31;;;17.24;100.00
42591;BME280;28218;53.342;-6.216;2023-08-24T00:37:47;101310.28;;;17.25;100.00
42591;BME280;28218;53.342;-6.216;2023-08-24T00:40:15;101303.31;;;17.24;100.00
42591;BME280;28218;53.342;-6.216;2023-08-24T00:42:45;101300.88;;;17.23;100.00
42591;BME280;28218;53.342;-6.216;2023-08-24T00:45:14;101306.00;;;17.24;100.00
42591;BME280;28218;53.342;-6.216;2023-08-24T00:47:44;101304.34;;;17.23;100.00
42591;BME280;28218;53.342;-6.216;2023-08-24T00:50:13;101294.28;;;17.19;100.00
42591;BME280;28218;53.342;-6.216;2023-08-24T00:52:42;101302.28;;;17.19;100.00
42591;BME280;28218;53.342;-6.216;2023-08-24T00:55:11;101303.31;;;17.18;100.00
42591;BME280;28218;53.342;-6.216;2023-08-24T00:57:40;101297.53;;;17.14;100.00
42591;BME280;28218;53.342;-6.216;2023-08-24T01:00:10;101298.38;;;17.15;100.00
42591;BME280;28218;53.342;-6.216;2023-08-24T01:02:38;101292.81;;;17.09;100.00
42591;BME280;28218;53.342;-6.216;2023-08-24T01:05:07;101299.16;;;17.08;100.00
42591;BME280;28218;53.342;-6.216;2023-08-24T01:07:38;101296.28;;;17.03;100.00
42591;BME280;28218;53.342;-6.216;2023-08-24T01:10:08;101291.31;;;17.00;100.00
42591;BME280;28218;53.342;-6.216;2023-08-24T01:12:56;101297.84;;;16.98;100.00
42591;BME280;28218;53.342;-6.216;2023-08-24T01:15:32;101309.53;;;16.97;100.00
42591;BME280;28218;53.342;-6.216;2023-08-24T01:18:08;101300.09;;;16.94;100.00
42591;BME280;28218;53.342;-6.216;2023-08-24T01:20:41;101298.44;;;16.93;100.00
42591;BME280;28218;53.342;-6.216;2023-08-24T01:23:25;101281.25;;;16.96;100.00
42591;BME280;28218;53.342;-6.216;2023-08-24T01:26:04;101285.13;;;16.93;100.00
42591;BME280;28218;53.342;-6.216;2023-08-24T01:28:33;101302.94;;;16.93;100.00
42591;BME280;28218;53.342;-6.216;2023-08-24T01:31:03;101294.97;;;16.93;100.00
42591;BME280;28218;53.342;-6.216;2023-08-24T01:33:32;101297.81;;;16.91;100.00
42591;BME280;28218;53.342;-6.216;2023-08-24T01:36:00;101292.50;;;16.91;100.00
42591;BME280;28218;53.342;-6.216;2023-08-24T01:38:28;101290.44;;;16.86;100.00
42591;BME280;28218;53.342;-6.216;2023-08-24T01:41:05;101292.88;;;16.88;100.00
42591;BME280;28218;53.342;-6.216;2023-08-24T01:43:38;101296.19;;;16.90;100.00
42591;BME280;28218;53.342;-6.216;2023-08-24T01:46:12;101287.16;;;16.84;100.00
42591;BME280;28218;53.342;-6.216;2023-08-24T01:48:43;101285.47;;;16.83;100.00
42591;BME280;28218;53.342;-6.216;2023-08-24T01:51:13;101282.81;;;16.83;100.00
42591;BME280;28218;53.342;-6.216;2023-08-24T01:53:41;101274.00;;;16.83;100.00
42591;BME280;28218;53.342;-6.216;2023-08-24T01:56:12;101279.53;;;16.81;100.00
42591;BME280;28218;53.342;-6.216;2023-08-24T01:58:40;101271.75;;;16.80;100.00
42591;BME280;28218;53.342;-6.216;2023-08-24T02:01:09;101271.94;;;16.78;100.00
42591;BME280;28218;53.342;-6.216;2023-08-24T02:03:39;101266.19;;;16.75;100.00
42591;BME280;28218;53.342;-6.216;2023-08-24T02:06:08;101272.72;;;16.72;100.00
42591;BME280;28218;53.342;-6.216;2023-08-24T02:08:36;101271.22;;;16.70;100.00
42591;BME280;28218;53.342;-6.216;2023-08-24T02:11:04;101287.03;;;16.71;100.00
42591;BME280;28218;53.342;-6.216;2023-08-24T02:13:34;101284.19;;;16.73;100.00
42591;BME280;28218;53.342;-6.216;2023-08-24T02:16:03;101278.88;;;16.73;100.00
42591;BME280;28218;53.342;-6.216;2023-08-24T02:18:32;101281.53;;;16.73;100.00
42591;BME280;28218;53.342;-6.216;2023-08-24T02:21:06;101280.88;;;16.71;100.00
42591;BME280;28218;53.342;-6.216;2023-08-24T02:23:35;101282.91;;;16.69;100.00
42591;BME280;28218;53.342;-6.216;2023-08-24T02:26:03;101282.91;;;16.69;100.00
42591;BME280;28218;53.342;-6.216;2023-08-24T02:28:34;101281.25;;;16.68;100.00
42591;BME280;28218;53.342;-6.216;2023-08-24T02:31:03;101279.41;;;16.68;100.00
42591;BME280;28218;53.342;-6.216;2023-08-24T02:33:31;101273.06;;;16.69;100.00
42591;BME280;28218;53.342;-6.216;2023-08-24T02:36:00;101278.00;;;16.66;100.00
42591;BME280;28218;53.342;-6.216;2023-08-24T02:38:28;101274.47;;;16.65;100.00
42591;BME280;28218;53.342;-6.216;2023-08-24T02:41:01;101267.53;;;16.64;100.00
42591;BME280;28218;53.342;-6.216;2023-08-24T02:43:29;101274.06;;;16.61;100.00
42591;BME280;28218;53.342;-6.216;2023-08-24T02:46:02;101272.41;;;16.60;100.00
42591;BME280;28218;53.342;-6.216;2023-08-24T02:48:32;101271.78;;;16.58;100.00
42591;BME280;28218;53.342;-6.216;2023-08-24T02:51:01;101275.47;;;16.57;100.00
42591;BME280;28218;53.342;-6.216;2023-08-24T02:53:30;101278.50;;;16.54;100.00
42591;BME280;28218;53.342;-6.216;2023-08-24T02:55:59;101291.81;;;16.54;100.00
42591;BME280;28218;53.342;-6.216;2023-08-24T02:58:27;101288.53;;;16.52;100.00
42591;BME280;28218;53.342;-6.216;2023-08-24T03:00:56;101288.53;;;16.52;100.00
42591;BME280;28218;53.342;-6.216;2023-08-24T03:03:26;101284.19;;;16.51;100.00
42591;BME280;28218;53.342;-6.216;2023-08-24T03:05:56;101278.47;;;16.48;100.00
42591;BME280;28218;53.342;-6.216;2023-08-24T03:08:25;101282.31;;;16.45;100.00
42591;BME280;28218;53.342;-6.216;2023-08-24T03:10:53;101275.75;;;16.41;100.00
42591;BME280;28218;53.342;-6.216;2023-08-24T03:13:21;101267.38;;;16.44;100.00
42591;BME280;28218;53.342;-6.216;2023-08-24T03:15:50;101274.75;;;16.42;100.00
42591;BME280;28218;53.342;-6.216;2023-08-24T03:18:19;101265.53;;;16.45;100.00
42591;BME280;28218;53.342;-6.216;2023-08-24T03:20:49;101254.69;;;16.46;100.00
42591;BME280;28218;53.342;-6.216;2023-08-24T03:23:17;101257.38;;;16.46;100.00
42591;BME280;28218;53.342;-6.216;2023-08-24T03:25:45;101263.53;;;16.47;100.00
42591;BME280;28218;53.342;-6.216;2023-08-24T03:28:14;101265.75;;;16.43;100.00
42591;BME280;28218;53.342;-6.216;2023-08-24T03:30:46;101269.44;;;16.42;100.00
42591;BME280;28218;53.342;-6.216;2023-08-24T03:33:15;101265.09;;;16.41;100.00
42591;BME280;28218;53.342;-6.216;2023-08-24T03:35:44;101267.97;;;16.40;100.00
42591;BME280;28218;53.342;-6.216;2023-08-24T03:38:14;101276.16;;;16.38;100.00
42591;BME280;28218;53.342;-6.216;2023-08-24T03:40:42;101273.66;;;16.36;100.00
42591;BME280;28218;53.342;-6.216;2023-08-24T03:43:10;101275.69;;;16.34;100.00
42591;BME280;28218;53.342;-6.216;2023-08-24T03:45:39;101275.91;;;16.33;100.00
42591;BME280;28218;53.342;-6.216;2023-08-24T03:48:06;101271.16;;;16.28;100.00
42591;BME280;28218;53.342;-6.216;2023-08-24T03:50:34;101270.34;;;16.28;100.00
42591;BME280;28218;53.342;-6.216;2023-08-24T03:53:03;101266.66;;;16.29;100.00
42591;BME280;28218;53.342;-6.216;2023-08-24T03:55:33;101258.25;;;16.25;100.00
42591;BME280;28218;53.342;-6.216;2023-08-24T03:58:02;101253.13;;;16.24;100.00
42591;BME280;28218;53.342;-6.216;2023-08-24T04:00:30;101259.44;;;16.23;100.00
42591;BME280;28218;53.342;-6.216;2023-08-24T04:02:58;101261.28;;;16.22;100.00
42591;BME280;28218;53.342;-6.216;2023-08-24T04:05:27;101255.94;;;16.22;100.00
42591;BME280;28218;53.342;-6.216;2023-08-24T04:07:55;101254.31;;;16.21;100.00
42591;BME280;28218;53.342;-6.216;2023-08-24T04:10:23;101252.22;;;16.17;100.00
42591;BME280;28218;53.342;-6.216;2023-08-24T04:12:53;101255.91;;;16.16;100.00
42591;BME280;28218;53.342;-6.216;2023-08-24T04:15:22;101256.28;;;16.13;100.00
42591;BME280;28218;53.342;-6.216;2023-08-24T04:17:50;101255.47;;;16.12;100.00
42591;BME280;28218;53.342;-6.216;2023-08-24T04:20:19;101260.34;;;16.08;100.00
42591;BME280;28218;53.342;-6.216;2023-08-24T04:22:48;101260.75;;;16.05;100.00
42591;BME280;28218;53.342;-6.216;2023-08-24T04:25:16;101263.16;;;16.00;100.00
42591;BME280;28218;53.342;-6.216;2023-08-24T04:27:44;101271.28;;;15.99;100.00
42591;BME280;28218;53.342;-6.216;2023-08-24T04:30:14;101268.22;;;15.95;100.00
42591;BME280;28218;53.342;-6.216;2023-08-24T04:32:42;101276.34;;;15.94;100.00
42591;BME280;28218;53.342;-6.216;2023-08-24T04:35:10;101270.41;;;15.92;100.00
42591;BME280;28218;53.342;-6.216;2023-08-24T04:37:38;101272.81;;;15.87;100.00
42591;BME280;28218;53.342;-6.216;2023-08-24T04:40:07;101274.66;;;15.86;100.00
42591;BME280;28218;53.342;-6.216;2023-08-24T04:42:36;101269.91;;;15.81;100.00
42591;BME280;28218;53.342;-6.216;2023-08-24T04:45:05;101271.09;;;15.79;100.00
42591;BME280;28218;53.342;-6.216;2023-08-24T04:47:35;101279.06;;;15.79;100.00
42591;BME280;28218;53.342;-6.216;2023-08-24T04:50:05;101281.53;;;15.80;100.00
42591;BME280;28218;53.342;-6.216;2023-08-24T04:52:33;101283.75;;;15.77;100.00
42591;BME280;28218;53.342;-6.216;2023-08-24T04:55:01;101281.09;;;15.77;100.00
42591;BME280;28218;53.342;-6.216;2023-08-24T04:57:30;101278.63;;;15.75;100.00
42591;BME280;28218;53.342;-6.216;2023-08-24T04:59:58;101286.97;;;15.72;100.00
42591;BME280;28218;53.342;-6.216;2023-08-24T05:02:27;101281.22;;;15.69;100.00
42591;BME280;28218;53.342;-6.216;2023-08-24T05:04:56;101280.41;;;15.68;100.00
42591;BME280;28218;53.342;-6.216;2023-08-24T05:07:25;101282.84;;;15.70;100.00
42591;BME280;28218;53.342;-6.216;2023-08-24T05:09:53;101282.59;;;15.65;100.00
42591;BME280;28218;53.342;-6.216;2023-08-24T05:12:21;101284.44;;;15.64;100.00
42591;BME280;28218;53.342;-6.216;2023-08-24T05:14:50;101288.44;;;15.60;100.00
42591;BME280;28218;53.342;-6.216;2023-08-24T05:17:18;101290.28;;;15.59;100.00
42591;BME280;28218;53.342;-6.216;2023-08-24T05:19:50;101296.59;;;15.58;100.00
42591;BME280;28218;53.342;-6.216;2023-08-24T05:22:20;101297.63;;;15.57;100.00
42591;BME280;28218;53.342;-6.216;2023-08-24T05:24:48;101296.97;;;15.55;100.00
42591;BME280;28218;53.342;-6.216;2023-08-24T05:27:17;101290.00;;;15.54;100.00
42591;BME280;28218;53.342;-6.216;2023-08-24T05:29:45;101295.31;;;15.54;100.00
42591;BME280;28218;53.342;-6.216;2023-08-24T05:32:13;101287.56;;;15.53;100.00
42591;BME280;28218;53.342;-6.216;2023-08-24T05:34:41;101295.31;;;15.54;100.00
42591;BME280;28218;53.342;-6.216;2023-08-24T05:37:09;101303.84;;;15.50;100.00
42591;BME280;28218;53.342;-6.216;2023-08-24T05:39:39;101294.66;;;15.52;100.00
42591;BME280;28218;53.342;-6.216;2023-08-24T05:42:08;101299.81;;;15.54;100.00
42591;BME280;28218;53.342;-6.216;2023-08-24T05:44:36;101302.28;;;15.55;100.00
42591;BME280;28218;53.342;-6.216;2023-08-24T05:47:04;101298.59;;;15.56;100.00
42591;BME280;28218;53.342;-6.216;2023-08-24T05:49:32;101291.66;;;15.55;100.00
42591;BME280;28218;53.342;-6.216;2023-08-24T05:52:01;101299.00;;;15.53;100.00
42591;BME280;28218;53.342;-6.216;2023-08-24T05:54:29;101299.63;;;15.55;100.00
42591;BME280;28218;53.342;-6.216;2023-08-24T05:56:58;101300.63;;;15.54;100.00
42591;BME280;28218;53.342;-6.216;2023-08-24T05:59:28;101301.09;;;15.58;100.00
42591;BME280;28218;53.342;-6.216;2023-08-24T06:01:56;101301.91;;;15.58;100.00
42591;BME280;28218;53.342;-6.216;2023-08-24T06:04:24;101307.69;;;15.62;100.00
42591;BME280;28218;53.342;-6.216;2023-08-24T06:06:52;101307.69;;;15.62;100.00
42591;BME280;28218;53.342;-6.216;2023-08-24T06:09:20;101315.28;;;15.65;100.00
42591;BME280;28218;53.342;-6.216;2023-08-24T06:11:49;101315.13;;;15.67;100.00
42591;BME280;28218;53.342;-6.216;2023-08-24T06:14:18;101306.31;;;15.66;100.00
42591;BME280;28218;53.342;-6.216;2023-08-24T06:16:47;101308.16;;;15.66;100.00
42591;BME280;28218;53.342;-6.216;2023-08-24T06:19:15;101311.00;;;15.64;100.00
42591;BME280;28218;53.342;-6.216;2023-08-24T06:21:43;101310.81;;;15.66;100.00
42591;BME280;28218;53.342;-6.216;2023-08-24T06:24:12;101308.59;;;15.69;100.00
42591;BME280;28218;53.342;-6.216;2023-08-24T06:26:40;101306.16;;;15.68;100.00
42591;BME280;28218;53.342;-6.216;2023-08-24T06:29:08;101307.78;;;15.69;100.00
42591;BME280;28218;53.342;-6.216;2023-08-24T06:31:38;101307.78;;;15.69;100.00
42591;BME280;28218;53.342;-6.216;2023-08-24T06:34:06;101312.91;;;15.70;100.00
42591;BME280;28218;53.342;-6.216;2023-08-24T06:36:35;101306.75;;;15.70;100.00
42591;BME280;28218;53.342;-6.216;2023-08-24T06:39:03;101307.78;;;15.69;100.00
42591;BME280;28218;53.342;-6.216;2023-08-24T06:41:33;101308.59;;;15.69;100.00
42591;BME280;28218;53.342;-6.216;2023-08-24T06:44:02;101297.72;;;15.64;100.00
42591;BME280;28218;53.342;-6.216;2023-08-24T06:46:30;101297.88;;;15.63;100.00
42591;BME280;28218;53.342;-6.216;2023-08-24T06:48:59;101289.09;;;15.62;100.00
42591;BME280;28218;53.342;-6.216;2023-08-24T06:51:28;101280.28;;;15.62;100.00
42591;BME280;28218;53.342;-6.216;2023-08-24T06:53:56;101289.25;;;15.60;100.00
42591;BME280;28218;53.342;-6.216;2023-08-24T06:56:24;101286.59;;;15.60;100.00
42591;BME280;28218;53.342;-6.216;2023-08-24T06:58:52;101284.34;;;15.57;100.00
42591;BME280;28218;53.342;-6.216;2023-08-24T07:01:20;101289.25;;;15.60;100.00
42591;BME280;28218;53.342;-6.216;2023-08-24T07:03:49;101289.25;;;15.60;100.00
42591;BME280;28218;53.342;-6.216;2023-08-24T07:06:18;101285.25;;;15.65;100.00
42591;BME280;28218;53.342;-6.216;2023-08-24T07:08:47;101295.50;;;15.68;100.00
42591;BME280;28218;53.342;-6.216;2023-08-24T07:11:16;101291.03;;;15.68;100.00
42591;BME280;28218;53.342;-6.216;2023-08-24T07:13:44;101287.34;;;15.69;100.00
42591;BME280;28218;53.342;-6.216;2023-08-24T07:16:12;101286.72;;;15.67;100.00
42591;BME280;28218;53.342;-6.216;2023-08-24T07:18:41;101284.06;;;15.67;100.00
42591;BME280;28218;53.342;-6.216;2023-08-24T07:21:09;101287.16;;;15.71;100.00
42591;BME280;28218;53.342;-6.216;2023-08-24T07:23:39;101286.16;;;15.72;100.00
42591;BME280;28218;53.342;-6.216;2023-08-24T07:26:07;101290.50;;;15.79;100.00
42591;BME280;28218;53.342;-6.216;2023-08-24T07:28:35;101284.91;;;15.89;100.00
42591;BME280;28218;53.342;-6.216;2023-08-24T07:31:07;101282.13;;;15.97;100.00
42591;BME280;28218;53.342;-6.216;2023-08-24T07:33:35;101285.28;;;16.07;100.00
42591;BME280;28218;53.342;-6.216;2023-08-24T07:36:05;101280.44;;;16.18;100.00
42591;BME280;28218;53.342;-6.216;2023-08-24T07:38:33;101280.97;;;16.28;100.00
42591;BME280;28218;53.342;-6.216;2023-08-24T07:41:03;101276.53;;;16.35;100.00
42591;BME280;28218;53.342;-6.216;2023-08-24T07:43:33;101277.78;;;16.39;100.00
42591;BME280;28218;53.342;-6.216;2023-08-24T07:46:01;101279.50;;;16.47;100.00
42591;BME280;28218;53.342;-6.216;2023-08-24T07:48:34;101278.13;;;16.57;100.00
42591;BME280;28218;53.342;-6.216;2023-08-24T07:51:02;101283.09;;;16.67;100.00
42591;BME280;28218;53.342;-6.216;2023-08-24T07:53:30;101285.84;;;16.74;100.00
42591;BME280;28218;53.342;-6.216;2023-08-24T07:56:00;101289.16;;;16.82;100.00
42591;BME280;28218;53.342;-6.216;2023-08-24T07:58:30;101282.66;;;16.92;100.00
42591;BME280;28218;53.342;-6.216;2023-08-24T08:00:59;101285.34;;;16.98;100.00
42591;BME280;28218;53.342;-6.216;2023-08-24T08:03:27;101279.44;;;17.03;100.00
42591;BME280;28218;53.342;-6.216;2023-08-24T08:05:58;101282.78;;;17.11;100.00
42591;BME280;28218;53.342;-6.216;2023-08-24T08:08:26;101274.63;;;17.20;100.00
42591;BME280;28218;53.342;-6.216;2023-08-24T08:10:58;101277.09;;;17.21;100.00
42591;BME280;28218;53.342;-6.216;2023-08-24T08:13:27;101287.78;;;17.28;100.00
42591;BME280;28218;53.342;-6.216;2023-08-24T08:16:03;101291.47;;;17.27;100.00
42591;BME280;28218;53.342;-6.216;2023-08-24T08:18:32;101294.34;;;17.32;100.00
42591;BME280;28218;53.342;-6.216;2023-08-24T08:21:00;101293.13;;;17.34;100.00
42591;BME280;28218;53.342;-6.216;2023-08-24T08:23:30;101288.44;;;17.43;100.00
42591;BME280;28218;53.342;-6.216;2023-08-24T08:25:58;101282.53;;;17.48;100.00
42591;BME280;28218;53.342;-6.216;2023-08-24T08:28:26;101280.50;;;17.56;100.00
42591;BME280;28218;53.342;-6.216;2023-08-24T08:30:55;101282.16;;;17.64;100.00
42591;BME280;28218;53.342;-6.216;2023-08-24T08:33:24;101287.16;;;17.74;100.00
42591;BME280;28218;53.342;-6.216;2023-08-24T08:35:53;101294.94;;;17.82;100.00
42591;BME280;28218;53.342;-6.216;2023-08-24T08:38:21;101285.53;;;17.86;100.00
42591;BME280;28218;53.342;-6.216;2023-08-24T08:40:54;101284.09;;;17.90;100.00
42591;BME280;28218;53.342;-6.216;2023-08-24T08:43:24;101286.38;;;17.93;100.00
42591;BME280;28218;53.342;-6.216;2023-08-24T08:45:54;101289.25;;;17.98;100.00
42591;BME280;28218;53.342;-6.216;2023-08-24T08:48:25;101293.56;;;17.99;100.00
42591;BME280;28218;53.342;-6.216;2023-08-24T08:50:54;101307.09;;;18.04;100.00
42591;BME280;28218;53.342;-6.216;2023-08-24T08:53:23;101302.59;;;18.11;100.00
42591;BME280;28218;53.342;-6.216;2023-08-24T08:55:52;101310.19;;;18.14;100.00
42591;BME280;28218;53.342;-6.216;2023-08-24T08:58:21;101315.69;;;18.06;100.00
42591;BME280;28218;53.342;-6.216;2023-08-24T09:00:53;101318.38;;;18.00;100.00
42591;BME280;28218;53.342;-6.216;2023-08-24T09:03:21;101314.44;;;17.96;100.00
42591;BME280;28218;53.342;-6.216;2023-08-24T09:05:52;101310.34;;;18.06;100.00
42591;BME280;28218;53.342;-6.216;2023-08-24T09:08:20;101315.94;;;18.18;100.00
42591;BME280;28218;53.342;-6.216;2023-08-24T09:10:49;101311.44;;;18.32;100.00
42591;BME280;28218;53.342;-6.216;2023-08-24T09:13:18;101304.22;;;18.39;100.00
42591;BME280;28218;53.342;-6.216;2023-08-24T09:15:46;101314.50;;;18.42;100.00
42591;BME280;28218;53.342;-6.216;2023-08-24T09:18:14;101316.34;;;18.48;100.00
42591;BME280;28218;53.342;-6.216;2023-08-24T09:20:43;101324.16;;;18.43;100.00
42591;BME280;28218;53.342;-6.216;2023-08-24T09:23:19;101323.53;;;18.41;100.00
42591;BME280;28218;53.342;-6.216;2023-08-24T09:25:48;101320.47;;;18.51;100.00
42591;BME280;28218;53.342;-6.216;2023-08-24T09:28:22;101315.50;;;18.68;100.00
42591;BME280;28218;53.342;-6.216;2023-08-24T09:30:55;101309.59;;;18.79;100.00
42591;BME280;28218;53.342;-6.216;2023-08-24T09:33:23;101318.81;;;18.83;100.00
42591;BME280;28218;53.342;-6.216;2023-08-24T09:35:53;101323.09;;;18.90;100.00
42591;BME280;28218;53.342;-6.216;2023-08-24T09:38:26;101327.19;;;19.00;100.00
42591;BME280;28218;53.342;-6.216;2023-08-24T09:40:55;101336.03;;;19.07;100.00
42591;BME280;28218;53.342;-6.216;2023-08-24T09:43:23;101337.25;;;19.11;100.00
42591;BME280;28218;53.342;-6.216;2023-08-24T09:45:53;101346.69;;;19.13;100.00
42591;BME280;28218;53.342;-6.216;2023-08-24T09:48:22;101337.81;;;19.26;100.00
42591;BME280;28218;53.342;-6.216;2023-08-24T09:50:56;101332.25;;;19.34;100.00
42591;BME280;28218;53.342;-6.216;2023-08-24T09:53:28;101331.81;;;19.37;100.00
42591;BME280;28218;53.342;-6.216;2023-08-24T09:55:59;101331.34;;;19.47;100.00
42591;BME280;28218;53.342;-6.216;2023-08-24T09:58:28;101331.34;;;19.60;100.00
42591;BME280;28218;53.342;-6.216;2023-08-24T10:00:58;101329.25;;;19.69;100.00
42591;BME280;28218;53.342;-6.216;2023-08-24T10:03:30;101346.88;;;19.83;100.00
42591;BME280;28218;53.342;-6.216;2023-08-24T10:06:01;101348.50;;;19.84;100.00
42591;BME280;28218;53.342;-6.216;2023-08-24T10:08:37;101355.34;;;19.74;100.00
42591;BME280;28218;53.342;-6.216;2023-08-24T10:11:08;101367.50;;;19.70;100.00
42591;BME280;28218;53.342;-6.216;2023-08-24T10:13:46;101363.59;;;19.72;100.00
42591;BME280;28218;53.342;-6.216;2023-08-24T10:16:17;101366.41;;;19.84;100.00
42591;BME280;28218;53.342;-6.216;2023-08-24T10:18:47;101367.03;;;19.86;100.00
42591;BME280;28218;53.342;-6.216;2023-08-24T10:21:15;101369.25;;;19.89;100.00
42591;BME280;28218;53.342;-6.216;2023-08-24T10:23:46;101377.81;;;20.04;100.00
42591;BME280;28218;53.342;-6.216;2023-08-24T10:26:14;101364.78;;;20.14;100.00
42591;BME280;28218;53.342;-6.216;2023-08-24T10:28:45;101376.66;;;20.25;100.00
42591;BME280;28218;53.342;-6.216;2023-08-24T10:31:14;101376.41;;;20.33;100.00
42591;BME280;28218;53.342;-6.216;2023-08-24T10:33:45;101389.50;;;20.41;100.00
42591;BME280;28218;53.342;-6.216;2023-08-24T10:36:14;101385.78;;;20.49;100.00
42591;BME280;28218;53.342;-6.216;2023-08-24T10:38:43;101388.78;;;20.59;100.00
42591;BME280;28218;53.342;-6.216;2023-08-24T10:41:13;101383.16;;;20.67;100.00
42591;BME280;28218;53.342;-6.216;2023-08-24T10:43:48;101382.38;;;20.60;100.00
42591;BME280;28218;53.342;-6.216;2023-08-24T10:46:17;101392.34;;;20.53;100.00
42591;BME280;28218;53.342;-6.216;2023-08-24T10:48:57;101380.38;;;20.56;100.00
42591;BME280;28218;53.342;-6.216;2023-08-24T10:51:27;101379.59;;;20.74;100.00
42591;BME280;28218;53.342;-6.216;2023-08-24T10:53:58;101365.56;;;20.78;100.00
42591;BME280;28218;53.342;-6.216;2023-08-24T10:56:35;101378.84;;;20.66;100.00
42591;BME280;28218;53.342;-6.216;2023-08-24T10:59:11;101373.59;;;20.53;100.00
42591;BME280;28218;53.342;-6.216;2023-08-24T11:01:41;101372.97;;;20.51;100.00
42591;BME280;28218;53.342;-6.216;2023-08-24T11:04:11;101380.50;;;20.36;100.00
42591;BME280;28218;53.342;-6.216;2023-08-24T11:06:52;101376.72;;;20.12;100.00
42591;BME280;28218;53.342;-6.216;2023-08-24T11:09:22;101377.22;;;20.02;100.00
42591;BME280;28218;53.342;-6.216;2023-08-24T11:11:59;101381.38;;;19.91;100.00
42591;BME280;28218;53.342;-6.216;2023-08-24T11:14:27;101380.75;;;19.96;100.00
42591;BME280;28218;53.342;-6.216;2023-08-24T11:16:58;101372.19;;;20.12;100.00
42591;BME280;28218;53.342;-6.216;2023-08-24T11:19:27;101366.06;;;20.37;100.00
42591;BME280;28218;53.342;-6.216;2023-08-24T11:21:58;101377.25;;;20.59;100.00
42591;BME280;28218;53.342;-6.216;2023-08-24T11:24:26;101375.84;;;20.81;100.00
42591;BME280;28218;53.342;-6.216;2023-08-24T11:26:55;101367.41;;;20.78;100.00
42591;BME280;28218;53.342;-6.216;2023-08-24T11:29:28;101376.00;;;20.61;100.00
42591;BME280;28218;53.342;-6.216;2023-08-24T11:31:57;101369.53;;;20.44;100.00
42591;BME280;28218;53.342;-6.216;2023-08-24T11:34:26;101370.03;;;20.28;100.00
42591;BME280;28218;53.342;-6.216;2023-08-24T11:36:54;101364.31;;;20.24;100.00
42591;BME280;28218;53.342;-6.216;2023-08-24T11:39:23;101354.13;;;20.08;100.00
42591;BME280;28218;53.342;-6.216;2023-08-24T11:41:59;101361.09;;;20.09;100.00
42591;BME280;28218;53.342;-6.216;2023-08-24T11:44:30;101369.78;;;20.36;100.00
42591;BME280;28218;53.342;-6.216;2023-08-24T11:46:59;101379.06;;;20.65;100.00
42591;BME280;28218;53.342;-6.216;2023-08-24T11:49:27;101363.19;;;20.88;100.00
42591;BME280;28218;53.342;-6.216;2023-08-24T11:51:55;101368.78;;;20.87;100.00
42591;BME280;28218;53.342;-6.216;2023-08-24T11:54:25;101362.06;;;20.78;100.00
42591;BME280;28218;53.342;-6.216;2023-08-24T11:56:53;101366.38;;;20.79;100.00
42591;BME280;28218;53.342;-6.216;2023-08-24T11:59:21;101359.03;;;20.92;100.00
42591;BME280;28218;53.342;-6.216;2023-08-24T12:01:51;101366.50;;;20.90;100.00
42591;BME280;28218;53.342;-6.216;2023-08-24T12:04:20;101350.06;;;21.05;100.00
42591;BME280;28218;53.342;-6.216;2023-08-24T12:06:48;101359.16;;;21.23;100.00
42591;BME280;28218;53.342;-6.216;2023-08-24T12:09:17;101359.88;;;21.30;100.00
42591;BME280;28218;53.342;-6.216;2023-08-24T12:11:45;101352.78;;;21.42;100.00
42591;BME280;28218;53.342;-6.216;2023-08-24T12:14:17;101354.94;;;21.33;100.00
42591;BME280;28218;53.342;-6.216;2023-08-24T12:16:45;101358.81;;;21.12;100.00
42591;BME280;28218;53.342;-6.216;2023-08-24T12:19:21;101355.00;;;21.27;100.00
42591;BME280;28218;53.342;-6.216;2023-08-24T12:21:50;101355.59;;;21.47;100.00
42591;BME280;28218;53.342;-6.216;2023-08-24T12:24:19;101355.31;;;21.55;100.00
42591;BME280;28218;53.342;-6.216;2023-08-24T12:26:55;101357.38;;;21.35;100.00
42591;BME280;28218;53.342;-6.216;2023-08-24T12:29:24;101351.63;;;21.13;100.00
42591;BME280;28218;53.342;-6.216;2023-08-24T12:31:57;101359.84;;;20.93;100.00
42591;BME280;28218;53.342;-6.216;2023-08-24T12:34:26;101360.84;;;20.74;100.00
42591;BME280;28218;53.342;-6.216;2023-08-24T12:36:55;101354.66;;;20.80;100.00
42591;BME280;28218;53.342;-6.216;2023-08-24T12:39:23;101355.88;;;20.77;100.00
42591;BME280;28218;53.342;-6.216;2023-08-24T12:41:51;101343.59;;;20.70;100.00